createdAt,value
2022-09-26T00:03:38.805Z,82.00
2022-09-26T00:07:41.462Z,81.90
2022-09-26T00:11:45.098Z,81.80
2022-09-26T00:15:48.270Z,81.90
2022-09-26T00:19:51.048Z,81.80
2022-09-26T00:23:54.811Z,81.70
2022-09-26T00:27:57.478Z,81.80
2022-09-26T00:32:01.164Z,81.90
2022-09-26T00:36:05.022Z,82.00
2022-09-26T00:40:08.796Z,81.90
2022-09-26T00:44:33.266Z,81.80
2022-09-26T00:48:37.857Z,82.00
2022-09-26T00:52:46.043Z,82.00
2022-09-26T00:56:52.557Z,82.20
2022-09-26T01:00:56.050Z,82.20
2022-09-26T01:05:00.037Z,81.90
2022-09-26T01:09:09.284Z,82.20
2022-09-26T01:13:13.241Z,82.30
2022-09-26T01:17:16.525Z,82.20
2022-09-26T01:21:53.354Z,82.20
2022-09-26T01:26:34.428Z,82.20
2022-09-26T01:30:51.520Z,82.30
2022-09-26T01:35:00.588Z,82.60
2022-09-26T01:39:30.745Z,82.60
2022-09-26T01:44:05.430Z,82.70
2022-09-26T01:48:19.930Z,82.50
2022-09-26T01:52:28.615Z,82.60
2022-09-26T01:56:37.273Z,82.50
2022-09-26T02:00:43.442Z,82.40
2022-09-26T02:04:50.311Z,82.30
2022-09-26T02:09:18.907Z,82.40
2022-09-26T02:13:39.866Z,82.40
2022-09-26T02:17:46.844Z,82.40
2022-09-26T02:21:49.718Z,82.30
2022-09-26T02:25:54.139Z,82.30
2022-09-26T02:29:57.675Z,82.20
2022-09-26T02:34:03.611Z,82.30
2022-09-26T02:38:06.961Z,82.30
2022-09-26T02:42:44.092Z,82.30
2022-09-26T02:47:19.461Z,82.30
2022-09-26T02:51:31.142Z,82.20
2022-09-26T02:55:36.882Z,82.30
2022-09-26T03:00:01.507Z,82.30
2022-09-26T03:04:19.795Z,82.30
2022-09-26T03:08:27.109Z,82.30
2022-09-26T03:12:33.042Z,82.30
2022-09-26T03:16:39.527Z,82.30
2022-09-26T03:20:44.635Z,82.30
2022-09-26T03:24:47.442Z,82.20
2022-09-26T03:28:56.469Z,82.20
2022-09-26T03:33:03.304Z,82.30
2022-09-26T03:37:07.214Z,82.20
2022-09-26T03:41:11.298Z,82.20
2022-09-26T03:45:21.185Z,82.20
2022-09-26T03:49:45.876Z,82.10
2022-09-26T03:53:50.622Z,82.10
2022-09-26T03:57:56.598Z,82.10
2022-09-26T04:02:06.948Z,82.20
2022-09-26T04:06:19.533Z,82.30
2022-09-26T04:10:24.252Z,82.40
2022-09-26T04:14:27.773Z,82.30
2022-09-26T04:18:35.541Z,82.50
2022-09-26T04:22:38.923Z,82.70
2022-09-26T04:26:43.888Z,82.70
2022-09-26T04:30:46.986Z,82.80
2022-09-26T04:34:50.770Z,82.80
2022-09-26T04:38:54.138Z,82.80
2022-09-26T04:42:58.200Z,82.80
2022-09-26T04:47:01.886Z,82.80
2022-09-26T04:51:24.511Z,82.90
2022-09-26T04:55:27.909Z,82.90
2022-09-26T04:59:30.677Z,82.90
2022-09-26T05:03:39.739Z,82.90
2022-09-26T05:07:45.190Z,82.90
2022-09-26T05:11:49.536Z,82.80
2022-09-26T05:15:55.578Z,82.90
2022-09-26T05:19:58.555Z,83.00
2022-09-26T05:24:27.495Z,82.80
2022-09-26T05:28:31.812Z,82.80
2022-09-26T05:32:35.807Z,82.70
2022-09-26T05:36:44.793Z,82.60
2022-09-26T05:40:56.632Z,82.70
2022-09-26T05:45:03.364Z,82.70
2022-09-26T05:49:07.120Z,82.70
2022-09-26T05:53:10.746Z,82.70
2022-09-26T05:57:13.643Z,82.80
2022-09-26T06:01:22.621Z,82.90
2022-09-26T06:05:36.289Z,83.00
2022-09-26T06:09:49.120Z,82.90
2022-09-26T06:14:01.134Z,83.00
2022-09-26T06:18:05.575Z,83.20
2022-09-26T06:22:08.417Z,83.20
2022-09-26T06:26:16.019Z,83.30
2022-09-26T06:30:19.771Z,83.40
2022-09-26T06:34:24.009Z,83.40
2022-09-26T06:38:56.034Z,83.40
2022-09-26T06:43:00.354Z,83.40
2022-09-26T06:47:23.881Z,83.40
2022-09-26T06:51:39.329Z,83.30
2022-09-26T06:55:54.758Z,83.30
2022-09-26T06:59:57.652Z,83.20
2022-09-26T07:04:27.313Z,83.20
2022-09-26T07:09:12.301Z,83.20
2022-09-26T07:13:29.800Z,83.30
2022-09-26T07:17:34.231Z,83.30
2022-09-26T07:21:47.549Z,83.30
2022-09-26T07:26:03.465Z,83.20
2022-09-26T07:30:09.193Z,83.10
2022-09-26T07:34:25.901Z,83.10
2022-09-26T07:38:29.435Z,83.00
2022-09-26T07:42:32.672Z,82.90
2022-09-26T07:46:54.214Z,82.90
2022-09-26T07:51:00.084Z,82.70
2022-09-26T07:55:22.136Z,82.70
2022-09-26T07:59:36.958Z,82.70
2022-09-26T08:04:20.642Z,82.60
2022-09-26T08:08:24.860Z,82.40
2022-09-26T08:12:38.343Z,82.40
2022-09-26T08:17:13.451Z,82.30
2022-09-26T08:21:18.072Z,82.20
2022-09-26T08:25:21.340Z,82.00
2022-09-26T08:29:43.760Z,81.90
2022-09-26T08:33:47.802Z,81.90
2022-09-26T08:37:50.565Z,81.80
2022-09-26T08:42:29.625Z,81.80
2022-09-26T08:47:05.084Z,81.80
2022-09-26T08:51:44.122Z,81.60
2022-09-26T08:55:51.079Z,81.40
2022-09-26T08:59:55.606Z,81.20
2022-09-26T09:04:13.052Z,81.30
2022-09-26T09:08:22.770Z,80.80
2022-09-26T09:13:03.872Z,80.60
2022-09-26T09:17:44.356Z,80.10
2022-09-26T09:22:54.147Z,79.60
2022-09-26T09:32:02.255Z,79.30
2022-09-26T09:36:48.340Z,78.10
2022-09-26T09:41:09.041Z,77.80
2022-09-26T09:45:28.453Z,77.70
2022-09-26T09:49:31.373Z,78.30
2022-09-26T09:53:54.032Z,77.60
2022-09-26T09:58:14.106Z,76.60
2022-09-26T10:02:51.683Z,76.30
2022-09-26T10:06:59.850Z,75.40
2022-09-26T10:11:15.021Z,75.80
2022-09-26T10:15:36.310Z,75.10
2022-09-26T10:19:44.224Z,73.90
2022-09-26T10:23:50.643Z,72.60
2022-09-26T10:28:38.566Z,71.00
2022-09-26T10:32:48.574Z,71.50
2022-09-26T10:37:30.332Z,70.30
2022-09-26T10:41:49.227Z,69.90
2022-09-26T10:46:18.045Z,69.20
2022-09-26T10:51:02.066Z,70.20
2022-09-26T10:55:26.452Z,67.80
2022-09-26T10:59:36.286Z,67.80
2022-09-26T11:03:46.675Z,66.70
2022-09-26T11:08:06.518Z,66.60
2022-09-26T11:12:27.805Z,64.70
2022-09-26T11:16:45.140Z,65.30
2022-09-26T11:20:52.938Z,66.40
2022-09-26T11:30:03.395Z,64.40
2022-09-26T11:34:18.634Z,65.10
2022-09-26T11:38:49.080Z,64.20
2022-09-26T11:43:03.125Z,64.20
2022-09-26T11:47:45.069Z,63.70
2022-09-26T11:52:14.747Z,64.10
2022-09-26T11:56:36.310Z,62.70
2022-09-26T12:01:21.079Z,62.50
2022-09-26T12:05:48.582Z,60.70
2022-09-26T12:10:03.619Z,59.80
2022-09-26T12:14:12.286Z,59.80
2022-09-26T12:18:24.554Z,58.20
2022-09-26T12:23:00.441Z,57.10
2022-09-26T12:27:36.962Z,58.30
2022-09-26T12:32:00.719Z,57.80
2022-09-26T12:36:20.706Z,56.40
2022-09-26T12:40:46.491Z,57.10
2022-09-26T12:45:14.049Z,58.00
2022-09-26T12:53:49.949Z,56.50
2022-09-26T12:57:58.610Z,57.10
2022-09-26T13:02:22.136Z,57.90
2022-09-26T13:06:32.562Z,56.80
2022-09-26T13:10:57.843Z,55.60
2022-09-26T13:15:16.779Z,55.40
2022-09-26T13:19:36.825Z,55.50
2022-09-26T13:23:45.729Z,55.00
2022-09-26T13:33:01.081Z,54.20
2022-09-26T13:37:10.375Z,53.20
2022-09-26T13:41:37.450Z,53.20
2022-09-26T13:46:16.236Z,53.30
2022-09-26T13:50:32.812Z,53.00
2022-09-26T13:54:52.584Z,53.20
2022-09-26T13:59:05.721Z,53.20
2022-09-26T14:08:08.902Z,53.20
2022-09-26T14:12:34.591Z,53.90
2022-09-26T14:16:44.334Z,54.80
2022-09-26T14:20:56.116Z,54.40
2022-09-26T14:25:00.095Z,54.10
2022-09-26T14:29:41.369Z,53.90
2022-09-26T14:33:59.553Z,52.80
2022-09-26T14:38:21.448Z,53.00
2022-09-26T14:42:49.519Z,52.70
2022-09-26T14:46:55.258Z,53.60
2022-09-26T14:51:27.835Z,54.20
2022-09-26T14:55:32.217Z,54.40
2022-09-26T14:59:41.651Z,55.00
2022-09-26T15:04:04.982Z,55.30
2022-09-26T15:08:24.374Z,55.30
2022-09-26T15:12:42.581Z,54.80
2022-09-26T15:16:51.318Z,55.00
2022-09-26T15:21:14.844Z,54.90
2022-09-26T15:25:33.554Z,54.90
2022-09-26T15:29:47.359Z,54.60
2022-09-26T15:34:06.177Z,54.30
2022-09-26T15:38:15.465Z,54.60
2022-09-26T15:42:48.359Z,54.90
2022-09-26T15:52:13.177Z,56.70
2022-09-26T15:56:25.675Z,59.60
2022-09-26T16:00:37.719Z,60.40
2022-09-26T16:04:44.574Z,61.10
2022-09-26T16:09:02.163Z,61.10
2022-09-26T16:13:27.175Z,62.30
2022-09-26T16:17:50.526Z,63.00
2022-09-26T16:22:18.765Z,64.50
2022-09-26T16:26:32.187Z,65.50
2022-09-26T16:30:36.836Z,65.70
2022-09-26T16:34:46.822Z,66.20
2022-09-26T16:39:09.882Z,66.20
2022-09-26T16:48:18.087Z,66.50
2022-09-26T16:52:38.403Z,67.20
2022-09-26T16:56:52.795Z,67.60
2022-09-26T17:01:21.456Z,67.90
2022-09-26T17:09:44.898Z,68.00
2022-09-26T17:18:15.513Z,67.90
2022-09-26T17:22:24.354Z,68.00
2022-09-26T17:26:35.127Z,67.80
2022-09-26T17:30:43.587Z,67.70
2022-09-26T17:34:54.701Z,68.00
2022-09-26T17:38:59.801Z,68.40
2022-09-26T17:43:12.603Z,68.70
2022-09-26T17:47:23.856Z,68.70
2022-09-26T17:51:35.613Z,68.90
2022-09-26T17:55:41.532Z,69.00
2022-09-26T17:59:58.382Z,69.00
2022-09-26T18:04:21.424Z,69.30
2022-09-26T18:08:40.598Z,69.30
2022-09-26T18:12:50.309Z,69.50
2022-09-26T18:16:55.176Z,69.30
2022-09-26T18:21:05.548Z,69.20
2022-09-26T18:25:39.813Z,69.20
2022-09-26T18:29:56.066Z,69.20
2022-09-26T18:38:29.693Z,69.30
2022-09-26T18:42:35.353Z,69.90
2022-09-26T18:46:45.220Z,70.40
2022-09-26T19:00:16.881Z,71.00
2022-09-26T19:04:40.173Z,71.10
2022-09-26T19:26:42.446Z,72.50
2022-09-26T19:30:45.903Z,72.30
2022-09-26T19:34:57.691Z,72.70
2022-09-26T19:39:01.538Z,72.90
2022-09-26T19:43:05.991Z,72.80
2022-09-26T19:47:17.889Z,72.10
2022-09-26T19:51:26.023Z,71.00
2022-09-26T19:55:31.748Z,70.60
2022-09-26T19:59:38.351Z,70.20
2022-09-26T20:03:44.081Z,70.10
2022-09-26T20:07:51.042Z,70.20
2022-09-26T20:11:55.045Z,70.30
2022-09-26T20:15:58.541Z,70.40
2022-09-26T20:20:05.963Z,69.90
2022-09-26T20:24:17.034Z,70.00
2022-09-26T20:28:23.182Z,70.10
2022-09-26T20:36:51.713Z,70.30
2022-09-26T20:41:08.139Z,70.80
2022-09-26T20:45:19.606Z,70.90
2022-09-26T20:49:33.870Z,71.00
2022-09-26T20:53:37.389Z,71.40
2022-09-26T20:57:44.995Z,71.60
2022-09-26T21:01:50.209Z,71.80
2022-09-26T21:05:54.187Z,72.20
2022-09-26T21:09:58.983Z,72.50
2022-09-26T21:14:04.304Z,72.50
2022-09-26T21:18:28.566Z,72.70
2022-09-26T21:22:35.943Z,72.90
2022-09-26T21:26:39.868Z,73.30
2022-09-26T21:30:49.972Z,73.60
2022-09-26T21:35:01.845Z,73.70
2022-09-26T21:39:05.644Z,73.80
2022-09-26T21:43:25.280Z,73.80
2022-09-26T21:47:28.752Z,74.00
2022-09-26T21:51:32.764Z,73.90
2022-09-26T21:55:45.886Z,73.90
2022-09-26T21:59:57.000Z,73.80
2022-09-26T22:04:01.204Z,73.80
2022-09-26T22:08:06.379Z,73.70
2022-09-26T22:12:12.507Z,73.80
2022-09-26T22:16:15.888Z,74.00
2022-09-26T22:20:19.811Z,74.20
2022-09-26T22:24:23.239Z,74.10
2022-09-26T22:28:26.812Z,74.30
2022-09-26T22:32:29.467Z,74.40
2022-09-26T22:36:32.841Z,74.40
2022-09-26T22:40:35.939Z,74.50
2022-09-26T22:44:39.593Z,74.40
2022-09-26T22:48:45.938Z,74.50
2022-09-26T22:52:49.190Z,74.70
2022-09-26T22:56:52.017Z,74.20
2022-09-26T23:00:55.093Z,74.70
2022-09-26T23:04:57.907Z,74.80
2022-09-26T23:09:05.459Z,74.90
2022-09-26T23:13:08.181Z,74.90
2022-09-26T23:17:11.238Z,75.20
2022-09-26T23:21:20.554Z,75.20
2022-09-26T23:25:23.678Z,75.30
2022-09-26T23:29:27.233Z,75.30
2022-09-26T23:33:30.038Z,75.70
2022-09-26T23:37:32.908Z,75.80
2022-09-26T23:41:35.674Z,75.70
2022-09-26T23:45:38.581Z,75.80
2022-09-26T23:49:41.312Z,76.10
2022-09-26T23:53:44.135Z,76.20
2022-09-26T23:57:46.984Z,76.50
